createdAt,value
2023-04-15T00:01:04.220Z,2.30
2023-04-15T00:03:30.896Z,2.13
2023-04-15T00:05:58.587Z,2.03
2023-04-15T00:08:25.660Z,2.57
2023-04-15T00:10:52.919Z,2.23
2023-04-15T00:13:20.333Z,2.17
2023-04-15T00:15:47.488Z,1.83
2023-04-15T00:18:14.597Z,2.00
2023-04-15T00:20:41.676Z,2.13
2023-04-15T00:23:54.774Z,2.00
2023-04-15T00:26:21.466Z,2.03
2023-04-15T00:28:49.606Z,2.47
2023-04-15T00:31:16.488Z,2.13
2023-04-15T00:34:10.174Z,2.10
2023-04-15T00:36:36.854Z,2.47
2023-04-15T00:39:16.471Z,2.50
2023-04-15T00:41:43.671Z,2.03
2023-04-15T00:44:10.776Z,1.90
2023-04-15T00:46:54.412Z,2.53
2023-04-15T00:49:21.433Z,1.93
2023-04-15T00:51:48.208Z,1.93
2023-04-15T00:54:41.753Z,1.90
2023-04-15T00:57:08.993Z,2.07
2023-04-15T00:59:36.168Z,2.13
2023-04-15T01:02:03.039Z,2.47
2023-04-15T01:04:30.827Z,2.20
2023-04-15T01:06:58.055Z,2.33
2023-04-15T01:09:27.542Z,2.10
2023-04-15T01:16:26.803Z,2.30
2023-04-15T01:18:53.670Z,2.10
2023-04-15T01:22:05.701Z,2.13
2023-04-15T01:24:34.102Z,2.10
2023-04-15T01:27:00.842Z,2.23
2023-04-15T01:29:28.128Z,1.80
2023-04-15T01:31:56.495Z,1.73
2023-04-15T01:38:15.009Z,2.03
2023-04-15T01:40:41.572Z,1.90
2023-04-15T01:43:35.158Z,1.83
2023-04-15T01:46:02.385Z,1.70
2023-04-15T01:48:29.188Z,2.07
2023-04-15T01:51:33.026Z,1.70
2023-04-15T01:53:59.773Z,1.80
2023-04-15T01:56:26.743Z,1.60
2023-04-15T01:58:53.833Z,1.53
2023-04-15T02:01:32.086Z,1.67
2023-04-15T02:03:59.858Z,1.87
2023-04-15T02:06:28.343Z,1.67
2023-04-15T02:08:55.514Z,1.73
2023-04-15T02:11:23.223Z,1.90
2023-04-15T02:13:49.962Z,1.80
2023-04-15T02:16:19.658Z,1.90
2023-04-15T02:18:47.107Z,1.97
2023-04-15T02:21:48.072Z,1.67
2023-04-15T02:24:17.986Z,1.80
2023-04-15T02:26:44.655Z,2.20
2023-04-15T02:29:11.434Z,2.00
2023-04-15T02:31:40.790Z,1.97
2023-04-15T02:34:08.260Z,2.07
2023-04-15T02:36:57.384Z,1.90
2023-04-15T02:39:24.465Z,1.87
2023-04-15T02:41:53.875Z,1.93
2023-04-15T02:44:22.029Z,1.90
2023-04-15T02:47:02.413Z,1.60
2023-04-15T02:49:31.056Z,1.90
2023-04-15T02:51:58.349Z,1.60
2023-04-15T02:54:26.125Z,1.70
2023-04-15T02:56:55.367Z,2.17
2023-04-15T02:59:22.611Z,1.83
2023-04-15T03:01:49.416Z,2.33
2023-04-15T03:04:16.407Z,1.70
2023-04-15T03:06:43.208Z,2.03
2023-04-15T03:09:10.400Z,2.03
2023-04-15T03:11:40.854Z,1.83
2023-04-15T03:14:09.491Z,1.87
2023-04-15T03:16:42.409Z,1.73
2023-04-15T03:19:09.128Z,1.90
2023-04-15T03:21:35.996Z,1.73
2023-04-15T03:24:02.738Z,1.87
2023-04-15T03:27:26.045Z,1.83
2023-04-15T03:29:56.877Z,1.77
2023-04-15T03:32:25.928Z,2.10
2023-04-15T03:34:52.782Z,1.77
2023-04-15T03:37:19.596Z,2.10
2023-04-15T03:40:21.735Z,1.90
2023-04-15T03:42:48.444Z,1.93
2023-04-15T03:45:21.497Z,2.00
2023-04-15T03:47:49.797Z,1.70
2023-04-15T03:50:16.922Z,2.00
2023-04-15T03:52:44.971Z,2.00
2023-04-15T03:55:11.545Z,1.67
2023-04-15T03:57:59.869Z,2.00
2023-04-15T04:00:26.440Z,2.00
2023-04-15T04:02:53.527Z,2.03
2023-04-15T04:05:20.355Z,2.07
2023-04-15T04:07:47.384Z,2.30
2023-04-15T04:10:14.343Z,2.27
2023-04-15T04:12:40.923Z,1.73
2023-04-15T04:15:08.480Z,1.60
2023-04-15T04:17:36.011Z,2.03
2023-04-15T04:20:02.803Z,2.07
2023-04-15T04:22:29.503Z,2.20
2023-04-15T04:25:43.745Z,2.27
2023-04-15T04:28:11.668Z,2.00
2023-04-15T04:30:38.466Z,2.30
2023-04-15T04:33:51.019Z,2.20
2023-04-15T04:36:17.801Z,2.23
2023-04-15T04:39:07.985Z,2.10
2023-04-15T04:41:34.536Z,2.13
2023-04-15T04:44:01.225Z,2.07
2023-04-15T04:46:28.019Z,2.20
2023-04-15T04:48:54.803Z,1.90
2023-04-15T04:51:21.733Z,1.93
2023-04-15T04:54:04.415Z,2.60
2023-04-15T04:56:31.228Z,2.57
2023-04-15T04:59:00.117Z,3.30
2023-04-15T05:01:27.687Z,3.20
2023-04-15T05:03:55.212Z,3.27
2023-04-15T05:06:22.338Z,3.10
2023-04-15T05:08:51.490Z,2.73
2023-04-15T05:11:18.184Z,3.13
2023-04-15T05:13:44.882Z,2.87
2023-04-15T05:16:11.778Z,2.80
2023-04-15T05:18:38.435Z,2.50
2023-04-15T05:21:14.876Z,2.20
2023-04-15T05:23:41.835Z,2.07
2023-04-15T05:26:08.659Z,2.17
2023-04-15T05:28:35.427Z,2.30
2023-04-15T05:31:22.465Z,2.30
2023-04-15T05:33:49.402Z,2.10
2023-04-15T05:36:29.903Z,1.70
2023-04-15T05:38:56.747Z,2.00
2023-04-15T05:41:33.036Z,1.80
2023-04-15T05:44:02.100Z,1.73
2023-04-15T05:47:23.524Z,1.93
2023-04-15T05:49:53.574Z,1.73
2023-04-15T05:52:22.957Z,1.90
2023-04-15T05:54:49.743Z,1.67
2023-04-15T05:57:16.827Z,1.57
2023-04-15T05:59:49.550Z,1.50
2023-04-15T06:02:43.698Z,2.00
2023-04-15T06:05:11.976Z,1.90
2023-04-15T06:07:38.954Z,1.87
2023-04-15T06:10:06.692Z,1.60
2023-04-15T06:12:36.517Z,2.10
2023-04-15T06:15:04.070Z,1.73
2023-04-15T06:18:06.245Z,1.67
2023-04-15T06:20:36.913Z,1.70
2023-04-15T06:23:08.972Z,1.87
2023-04-15T06:25:35.865Z,1.50
2023-04-15T06:28:02.649Z,1.40
2023-04-15T06:30:45.336Z,1.57
2023-04-15T06:33:12.696Z,2.00
2023-04-15T06:35:41.893Z,1.53
2023-04-15T06:38:22.095Z,1.70
2023-04-15T06:40:48.780Z,2.10
2023-04-15T06:43:16.616Z,1.90
2023-04-15T06:45:46.204Z,1.97
2023-04-15T06:48:13.293Z,1.83
2023-04-15T06:54:39.801Z,1.60
2023-04-15T06:57:08.002Z,1.87
2023-04-15T06:59:34.777Z,2.03
2023-04-15T07:02:01.823Z,1.60
2023-04-15T07:04:28.860Z,1.70
2023-04-15T07:06:55.811Z,1.40
2023-04-15T07:09:23.913Z,1.77
2023-04-15T07:11:51.625Z,1.57
2023-04-15T07:14:18.588Z,4.00
2023-04-15T07:17:00.863Z,2.77
2023-04-15T07:19:27.840Z,3.10
2023-04-15T07:21:54.556Z,1.83
2023-04-15T07:24:36.682Z,2.10
2023-04-15T07:27:04.241Z,2.05
2023-04-15T07:29:31.613Z,1.77
2023-04-15T07:32:24.543Z,2.17
2023-04-15T07:34:51.190Z,2.20
2023-04-15T07:37:19.151Z,2.28
2023-04-15T07:40:12.116Z,1.92
2023-04-15T07:42:41.168Z,2.13
2023-04-15T07:45:09.492Z,2.13
2023-04-15T07:47:36.778Z,2.10
2023-04-15T07:50:03.879Z,2.50
2023-04-15T07:52:30.781Z,2.38
2023-04-15T07:55:23.594Z,2.08
2023-04-15T07:57:50.606Z,2.55
2023-04-15T08:00:24.792Z,2.50
2023-04-15T08:02:54.778Z,3.20
2023-04-15T08:05:22.159Z,3.72
2023-04-15T08:07:48.974Z,3.08
2023-04-15T08:10:15.857Z,2.38
2023-04-15T08:12:43.116Z,2.40
2023-04-15T08:15:10.281Z,2.65
2023-04-15T08:17:42.373Z,2.17
2023-04-15T08:20:09.789Z,2.40
2023-04-15T08:23:19.983Z,2.38
2023-04-15T08:25:47.040Z,1.88
2023-04-15T08:28:13.934Z,1.65
2023-04-15T08:30:41.021Z,1.73
2023-04-15T08:33:07.959Z,1.95
2023-04-15T08:35:34.748Z,1.30
2023-04-15T08:38:01.557Z,1.42
2023-04-15T08:40:38.746Z,1.70
2023-04-15T08:43:08.206Z,1.35
2023-04-15T08:45:44.999Z,2.20
2023-04-15T08:48:16.992Z,1.50
2023-04-15T08:51:16.347Z,1.45
2023-04-15T08:53:46.638Z,1.45
2023-04-15T08:56:16.021Z,1.77
2023-04-15T08:58:45.058Z,1.70
2023-04-15T09:01:21.945Z,1.48
2023-04-15T09:03:54.697Z,1.50
2023-04-15T09:06:30.116Z,1.30
2023-04-15T09:08:57.776Z,1.45
2023-04-15T09:11:26.118Z,1.95
2023-04-15T09:13:53.044Z,1.80
2023-04-15T09:16:32.795Z,1.95
2023-04-15T09:18:59.697Z,1.75
2023-04-15T09:21:32.325Z,1.63
2023-04-15T09:24:01.656Z,1.52
2023-04-15T09:27:01.821Z,1.23
2023-04-15T09:29:31.730Z,1.60
2023-04-15T09:32:10.819Z,1.43
2023-04-15T09:34:38.149Z,1.30
2023-04-15T09:37:05.124Z,1.30
2023-04-15T09:39:52.625Z,1.30
2023-04-15T09:42:27.017Z,1.00
2023-04-15T09:44:54.183Z,1.20
2023-04-15T09:51:06.810Z,1.37
2023-04-15T09:53:36.345Z,1.80
2023-04-15T09:57:00.631Z,1.43
2023-04-15T09:59:27.202Z,2.00
2023-04-15T10:01:56.526Z,1.60
2023-04-15T10:04:24.213Z,1.60
2023-04-15T10:06:51.433Z,1.60
2023-04-15T10:09:22.400Z,1.70
2023-04-15T10:11:50.424Z,1.67
2023-04-15T10:14:19.449Z,1.90
2023-04-15T10:16:49.209Z,1.67
2023-04-15T10:19:37.268Z,2.00
2023-04-15T10:22:04.467Z,2.30
2023-04-15T10:24:34.623Z,1.90
2023-04-15T10:27:07.219Z,1.80
2023-04-15T10:29:34.697Z,1.97
2023-04-15T10:32:11.672Z,1.83
2023-04-15T10:34:38.977Z,2.03
2023-04-15T10:37:09.532Z,2.57
2023-04-15T10:39:42.258Z,1.90
2023-04-15T10:42:22.769Z,1.85
2023-04-15T10:44:54.069Z,2.17
2023-04-15T10:47:22.285Z,1.80
2023-04-15T10:50:01.312Z,1.80
2023-04-15T10:52:29.304Z,2.10
2023-04-15T10:55:11.215Z,2.50
2023-04-15T10:57:39.878Z,1.83
2023-04-15T11:00:22.463Z,1.90
2023-04-15T11:02:53.412Z,1.93
2023-04-15T11:05:22.654Z,2.07
2023-04-15T11:08:04.701Z,2.37
2023-04-15T11:10:31.520Z,2.07
2023-04-15T11:13:06.551Z,2.10
2023-04-15T11:15:34.491Z,2.23
2023-04-15T11:18:19.563Z,2.37
2023-04-15T11:20:59.374Z,2.40
2023-04-15T11:23:34.439Z,2.70
2023-04-15T11:26:05.611Z,2.83
2023-04-15T11:28:33.964Z,2.60
2023-04-15T11:31:12.216Z,2.50
2023-04-15T11:34:03.948Z,2.70
2023-04-15T11:36:34.713Z,2.70
2023-04-15T11:43:50.158Z,3.45
2023-04-15T11:46:17.187Z,2.70
2023-04-15T11:48:48.839Z,2.63
2023-04-15T11:51:16.277Z,2.40
2023-04-15T11:53:52.459Z,2.22
2023-04-15T11:56:24.577Z,2.17
2023-04-15T11:59:10.730Z,2.08
2023-04-15T12:01:49.013Z,1.83
2023-04-15T12:04:23.219Z,1.92
2023-04-15T12:07:17.096Z,1.80
2023-04-15T12:09:45.890Z,2.08
2023-04-15T12:12:14.205Z,1.50
2023-04-15T12:14:44.705Z,1.83
2023-04-15T12:17:13.355Z,1.90
2023-04-15T12:19:54.381Z,1.95
2023-04-15T12:23:09.106Z,1.97
2023-04-15T12:25:36.375Z,1.90
2023-04-15T12:28:23.479Z,1.70
2023-04-15T12:30:54.232Z,1.45
2023-04-15T12:33:23.138Z,1.50
2023-04-15T12:35:49.929Z,1.70
2023-04-15T12:38:20.262Z,1.60
2023-04-15T12:40:47.520Z,2.10
2023-04-15T12:43:14.309Z,1.85
2023-04-15T12:45:41.473Z,1.60
2023-04-15T12:48:09.421Z,1.95
2023-04-15T12:50:52.664Z,1.40
2023-04-15T12:53:20.662Z,1.87
2023-04-15T12:55:49.886Z,1.97
2023-04-15T12:58:40.010Z,1.60
2023-04-15T13:01:07.002Z,1.57
2023-04-15T13:03:34.101Z,1.40
2023-04-15T13:06:02.391Z,1.37
2023-04-15T13:08:29.276Z,1.30
2023-04-15T13:11:52.978Z,0.93
2023-04-15T13:14:27.371Z,0.93
2023-04-15T13:16:54.445Z,1.23
2023-04-15T13:19:52.195Z,1.10
2023-04-15T13:22:20.520Z,1.17
2023-04-15T13:25:40.266Z,1.13
2023-04-15T13:28:06.976Z,1.30
2023-04-15T13:30:33.941Z,1.10
2023-04-15T13:33:37.130Z,1.30
2023-04-15T13:36:04.321Z,0.87
2023-04-15T13:38:33.488Z,1.00
2023-04-15T13:41:00.290Z,1.30
2023-04-15T13:43:27.175Z,1.07
2023-04-15T13:45:54.197Z,0.70
2023-04-15T13:48:21.274Z,0.80
2023-04-15T13:50:48.092Z,1.20
2023-04-15T13:53:47.084Z,0.90
2023-04-15T13:56:17.029Z,1.10
2023-04-15T13:58:44.078Z,1.20
2023-04-15T14:01:11.108Z,1.00
2023-04-15T14:03:49.283Z,0.90
2023-04-15T14:06:16.340Z,1.10
2023-04-15T14:08:43.753Z,1.20
2023-04-15T14:11:16.697Z,1.20
2023-04-15T14:13:46.953Z,1.00
2023-04-15T14:16:13.778Z,1.20
2023-04-15T14:18:44.815Z,1.10
2023-04-15T14:21:11.926Z,1.00
2023-04-15T14:23:38.970Z,0.97
2023-04-15T14:26:20.590Z,0.70
2023-04-15T14:28:48.562Z,0.53
2023-04-15T14:31:15.553Z,0.67
2023-04-15T14:33:42.787Z,0.60
2023-04-15T14:36:10.266Z,0.80
2023-04-15T14:38:41.195Z,0.80
2023-04-15T14:45:10.720Z,0.60
2023-04-15T14:47:37.684Z,0.70
2023-04-15T14:50:04.943Z,0.90
2023-04-15T14:52:38.958Z,0.70
2023-04-15T14:55:13.240Z,0.70
2023-04-15T14:57:41.574Z,0.80
2023-04-15T15:00:10.793Z,0.90
2023-04-15T15:03:01.997Z,0.93
2023-04-15T15:05:29.232Z,0.80
2023-04-15T15:07:58.865Z,0.70
2023-04-15T15:11:03.483Z,1.00
2023-04-15T15:13:30.626Z,0.70
2023-04-15T15:15:58.436Z,0.83
2023-04-15T15:18:28.056Z,0.83
2023-04-15T15:20:54.977Z,0.90
2023-04-15T15:23:24.484Z,0.83
2023-04-15T15:25:59.877Z,0.77
2023-04-15T15:29:04.403Z,0.90
2023-04-15T15:31:36.638Z,0.70
2023-04-15T15:34:04.254Z,0.60
2023-04-15T15:36:34.117Z,0.70
2023-04-15T15:39:01.014Z,1.13
2023-04-15T15:41:27.992Z,0.70
2023-04-15T15:43:58.110Z,0.90
2023-04-15T15:46:28.138Z,0.93
2023-04-15T15:48:55.457Z,1.00
2023-04-15T15:51:26.883Z,1.00
2023-04-15T15:53:54.807Z,0.97
2023-04-15T15:56:21.782Z,0.83
2023-04-15T15:58:48.583Z,0.70
2023-04-15T16:01:15.530Z,0.90
2023-04-15T16:04:15.789Z,0.90
2023-04-15T16:06:48.400Z,1.07
2023-04-15T16:09:19.982Z,1.30
2023-04-15T16:11:46.844Z,1.53
2023-04-15T16:14:14.333Z,1.53
2023-04-15T16:16:41.419Z,1.70
2023-04-15T16:20:01.235Z,1.80
2023-04-15T16:22:39.335Z,1.77
2023-04-15T16:25:06.481Z,1.60
2023-04-15T16:27:33.833Z,1.70
2023-04-15T16:30:42.661Z,1.70
2023-04-15T16:33:51.727Z,1.43
2023-04-15T16:36:18.749Z,1.67
2023-04-15T16:38:48.535Z,1.60
2023-04-15T16:41:16.079Z,2.00
2023-04-15T16:43:53.121Z,2.00
2023-04-15T16:46:19.803Z,1.83
2023-04-15T16:48:49.084Z,2.10
2023-04-15T16:51:15.865Z,2.30
2023-04-15T16:53:51.006Z,2.27
2023-04-15T16:56:17.867Z,2.13
2023-04-15T16:58:47.255Z,2.10
2023-04-15T17:01:14.297Z,1.97
2023-04-15T17:06:24.459Z,1.90
2023-04-15T17:08:51.792Z,2.10
2023-04-15T17:11:19.448Z,1.77
2023-04-15T17:13:49.213Z,1.80
2023-04-15T17:16:18.066Z,2.30
2023-04-15T17:18:47.573Z,2.50
2023-04-15T17:21:15.498Z,2.20
2023-04-15T17:23:42.440Z,2.63
2023-04-15T17:26:09.185Z,3.07
2023-04-15T17:28:36.300Z,2.80
2023-04-15T17:31:04.764Z,3.17
2023-04-15T17:34:00.722Z,3.23
2023-04-15T17:36:18.578Z,3.30
2023-04-15T17:38:46.046Z,3.33
2023-04-15T17:41:12.982Z,3.30
2023-04-15T17:43:39.941Z,3.73
2023-04-15T17:46:07.894Z,4.20
2023-04-15T17:48:34.979Z,3.70
2023-04-15T17:51:01.745Z,4.10
2023-04-15T17:53:28.712Z,3.90
2023-04-15T17:56:01.624Z,4.33
2023-04-15T17:58:28.568Z,4.97
2023-04-15T18:00:55.481Z,4.60
2023-04-15T18:03:22.321Z,4.43
2023-04-15T18:05:49.083Z,5.10
2023-04-15T18:08:32.316Z,5.57
2023-04-15T18:10:59.202Z,5.63
2023-04-15T18:13:26.145Z,6.37
2023-04-15T18:15:53.159Z,6.50
2023-04-15T18:18:20.044Z,6.23
2023-04-15T18:20:46.909Z,6.80
2023-04-15T18:23:17.032Z,6.93
2023-04-15T18:25:43.992Z,7.70
2023-04-15T18:28:35.918Z,7.47
2023-04-15T18:31:03.523Z,7.17
2023-04-15T18:33:30.290Z,7.73
2023-04-15T18:36:13.503Z,7.67
2023-04-15T18:38:40.174Z,8.03
2023-04-15T18:45:07.027Z,7.73
2023-04-15T18:47:33.955Z,7.83
2023-04-15T18:50:00.891Z,8.33
2023-04-15T18:52:27.836Z,8.93
2023-04-15T18:55:20.117Z,8.77
2023-04-15T18:57:48.604Z,8.37
2023-04-15T19:00:16.260Z,8.93
2023-04-15T19:02:44.041Z,9.60
2023-04-15T19:05:11.029Z,10.00
2023-04-15T19:07:37.893Z,9.47
2023-04-15T19:10:06.101Z,10.40
2023-04-15T19:12:43.574Z,9.50
2023-04-15T19:15:10.625Z,10.30
2023-04-15T19:17:37.496Z,10.27
2023-04-15T19:20:04.386Z,10.60
2023-04-15T19:22:31.331Z,10.10
2023-04-15T19:24:58.029Z,11.53
2023-04-15T19:27:24.913Z,11.40
2023-04-15T19:29:55.125Z,10.97
2023-04-15T19:32:22.648Z,11.83
2023-04-15T19:34:52.475Z,11.53
2023-04-15T19:37:19.375Z,12.53
2023-04-15T19:39:46.388Z,13.00
2023-04-15T19:42:13.320Z,13.13
2023-04-15T19:44:43.228Z,13.40
2023-04-15T19:47:10.989Z,13.63
2023-04-15T19:49:38.161Z,13.13
2023-04-15T19:52:05.222Z,13.97
2023-04-15T19:54:57.210Z,13.70
2023-04-15T19:57:24.178Z,13.73
2023-04-15T19:59:51.226Z,12.97
2023-04-15T20:02:18.319Z,14.00
2023-04-15T20:04:45.300Z,14.67
2023-04-15T20:07:11.980Z,14.70
2023-04-15T20:09:38.877Z,14.60
2023-04-15T20:12:49.638Z,14.63
2023-04-15T20:15:00.575Z,14.07
2023-04-15T20:17:27.541Z,14.50
2023-04-15T20:19:55.322Z,15.53
2023-04-15T20:22:22.020Z,15.73
2023-04-15T20:24:48.997Z,15.37
2023-04-15T20:27:15.759Z,15.23
2023-04-15T20:29:42.587Z,15.93
2023-04-15T20:32:11.765Z,16.07
2023-04-15T20:38:38.605Z,15.63
2023-04-15T20:41:05.647Z,16.47
2023-04-15T20:47:32.850Z,16.30
2023-04-15T20:49:59.760Z,16.67
2023-04-15T20:52:26.365Z,17.67
2023-04-15T20:54:54.338Z,17.43
2023-04-15T20:57:21.194Z,18.13
2023-04-15T20:59:48.017Z,19.07
2023-04-15T21:02:14.917Z,18.60
2023-04-15T21:05:11.155Z,17.47
2023-04-15T21:07:41.414Z,16.80
2023-04-15T21:10:08.503Z,16.37
2023-04-15T21:12:41.854Z,15.97
2023-04-15T21:15:09.478Z,16.00
2023-04-15T21:17:36.384Z,15.40
2023-04-15T21:20:03.856Z,15.77
2023-04-15T21:22:31.522Z,15.17
2023-04-15T21:24:58.302Z,14.53
2023-04-15T21:27:26.245Z,14.80
2023-04-15T21:33:53.275Z,13.33
2023-04-15T21:36:20.031Z,12.73
2023-04-15T21:42:47.998Z,13.13
2023-04-15T21:45:15.584Z,11.37
2023-04-15T21:48:04.217Z,11.80
2023-04-15T21:50:29.652Z,11.60
2023-04-15T21:52:56.492Z,12.13
2023-04-15T21:55:23.356Z,11.73
2023-04-15T21:57:50.250Z,11.47
2023-04-15T22:04:07.711Z,11.90
2023-04-15T22:06:34.662Z,13.30
2023-04-15T22:09:01.898Z,13.10
2023-04-15T22:11:31.133Z,11.83
2023-04-15T22:17:51.542Z,12.90
2023-04-15T22:20:18.693Z,12.27
2023-04-15T22:22:45.381Z,11.87
2023-04-15T22:25:12.695Z,11.97
2023-04-15T22:27:39.459Z,11.43
2023-04-15T22:30:07.287Z,11.70
2023-04-15T22:32:36.984Z,10.77
2023-04-15T22:35:04.108Z,11.43
2023-04-15T22:37:57.000Z,12.20
2023-04-15T22:40:23.880Z,11.77
2023-04-15T22:43:31.426Z,11.37
2023-04-15T22:45:58.479Z,11.00
2023-04-15T22:48:25.232Z,11.27
2023-04-15T22:50:51.981Z,11.73
2023-04-15T22:53:18.941Z,11.30
2023-04-15T22:55:47.776Z,11.40
2023-04-15T22:58:15.925Z,11.27
2023-04-15T23:00:45.022Z,11.47
2023-04-15T23:03:12.245Z,11.17
2023-04-15T23:05:41.326Z,10.87
2023-04-15T23:08:55.304Z,11.73
2023-04-15T23:11:22.109Z,11.63
2023-04-15T23:13:50.563Z,10.63
2023-04-15T23:16:17.202Z,10.70
2023-04-15T23:19:01.500Z,10.17
2023-04-15T23:21:29.150Z,10.57
2023-04-15T23:23:56.004Z,10.43
2023-04-15T23:26:22.633Z,10.97
2023-04-15T23:28:49.258Z,10.57
2023-04-15T23:31:31.415Z,10.80
2023-04-15T23:33:58.113Z,10.73
2023-04-15T23:36:25.146Z,10.93
2023-04-15T23:38:51.907Z,10.57
2023-04-15T23:41:18.733Z,10.27
2023-04-15T23:43:45.922Z,10.10
2023-04-15T23:46:12.905Z,11.10
2023-04-15T23:48:50.720Z,11.53
2023-04-15T23:51:17.848Z,11.13
2023-04-15T23:53:44.761Z,10.70
2023-04-15T23:56:11.623Z,11.27
2023-04-15T23:58:38.329Z,10.40
